Time;durP1;ratioP1;P1;durP2;ratioP2;P2;SDS_P1;SDS_P2;PMS_P1;PMS_P2;Temp;Humidity;BMP_temperature;BMP_pressure;BME280_temperature;BME280_humidity;BME280_pressure;Samples;Min_cycle;Max_cycle;Signal;HPM_P1;HPM_P2
2024/02/21 00:00:26;;;;;;;27.07;10.53;;;3.70;1.00;;;;;;4418805;28;659904;-76
2024/02/21 00:03:14;;;;;;;29.47;11.80;;;3.80;1.00;;;;;;4407198;28;658612;-76
2024/02/21 00:06:01;;;;;;;28.13;10.30;;;3.70;1.00;;;;;;4431368;28;658938;-76
2024/02/21 00:08:48;;;;;;;26.60;9.53;;;3.80;1.00;;;;;;4411075;28;658344;-76
2024/02/21 00:11:35;;;;;;;24.80;10.57;;;3.80;1.00;;;;;;4427531;28;657685;-76
2024/02/21 00:14:23;;;;;;;23.83;9.15;;;3.70;1.00;;;;;;4417899;28;658919;-75
2024/02/21 00:17:11;;;;;;;25.23;8.97;;;3.70;1.00;;;;;;4438771;28;657886;-76
2024/02/21 00:19:58;;;;;;;34.67;11.67;;;3.70;1.00;;;;;;4414279;28;657941;-76
2024/02/21 00:22:46;;;;;;;27.10;9.77;;;3.70;1.00;;;;;;4443009;28;658554;-75
2024/02/21 00:25:33;;;;;;;31.87;9.63;;;3.80;1.00;;;;;;4414777;28;657755;-76
2024/02/21 00:28:21;;;;;;;31.70;9.67;;;3.80;1.00;;;;;;4418403;28;658323;-76
2024/02/21 00:31:08;;;;;;;23.63;9.63;;;3.80;1.00;;;;;;4396987;28;658465;-76
2024/02/21 00:33:57;;;;;;;29.93;10.90;;;3.80;1.00;;;;;;4411840;28;658640;-77
2024/02/21 00:36:44;;;;;;;29.97;11.33;;;3.80;1.00;;;;;;4405379;28;659502;-76
2024/02/21 00:39:32;;;;;;;30.90;12.37;;;3.70;1.00;;;;;;4424924;28;658721;-76
2024/02/21 00:42:19;;;;;;;31.70;14.17;;;3.70;1.00;;;;;;4421038;28;658415;-76
2024/02/21 00:45:08;;;;;;;34.27;13.93;;;3.70;1.00;;;;;;4427812;28;658031;-76
2024/02/21 00:47:55;;;;;;;35.43;13.70;;;3.80;1.00;;;;;;4402110;28;659398;-76
2024/02/21 00:50:44;;;;;;;37.33;13.50;;;3.70;1.00;;;;;;4418719;28;658960;-76
2024/02/21 00:53:31;;;;;;;32.70;14.70;;;3.70;1.00;;;;;;4414904;28;658655;-76
2024/02/21 00:56:18;;;;;;;40.97;15.30;;;3.70;1.00;;;;;;4412577;28;658818;-76
2024/02/21 00:59:06;;;;;;;36.93;15.67;;;3.60;1.00;;;;;;4434521;28;658994;-77
2024/02/21 01:01:53;;;;;;;34.03;16.07;;;3.60;1.00;;;;;;4419668;28;658667;-75
2024/02/21 01:04:40;;;;;;;44.13;16.80;;;3.50;1.00;;;;;;4425035;28;659397;-77
2024/02/21 01:07:29;;;;;;;40.60;16.00;;;3.60;1.00;;;;;;4416476;28;658870;-76
2024/02/21 01:10:16;;;;;;;39.67;16.07;;;3.60;1.00;;;;;;4434510;28;658551;-76
2024/02/21 01:13:04;;;;;;;38.13;16.17;;;3.60;48.20;;;;;;4389913;28;658769;-77
2024/02/21 01:15:51;;;;;;;41.10;14.65;;;3.50;40.40;;;;;;4426345;28;659413;-76
2024/02/21 01:18:39;;;;;;;48.13;16.57;;;3.50;58.70;;;;;;4399090;28;660161;-76
2024/02/21 01:21:26;;;;;;;40.67;15.33;;;3.50;85.30;;;;;;4415167;28;660312;-76
2024/02/21 01:24:15;;;;;;;42.10;16.33;;;3.60;89.20;;;;;;4403679;28;659593;-76
2024/02/21 01:27:02;;;;;;;45.67;16.87;;;3.60;81.90;;;;;;4414430;28;660178;-75
2024/02/21 01:29:50;;;;;;;41.13;15.47;;;3.50;86.60;;;;;;4425585;28;660050;-77
2024/02/21 01:32:37;;;;;;;41.97;16.20;;;3.60;99.60;;;;;;4427548;28;659407;-76
2024/02/21 01:35:25;;;;;;;43.83;16.07;;;3.60;99.90;;;;;;4433909;28;659496;-76
2024/02/21 01:38:14;;;;;;;41.07;15.53;;;3.50;98.90;;;;;;4416189;28;659875;-74
2024/02/21 01:41:02;;;;;;;37.70;14.37;;;3.60;99.90;;;;;;4435917;28;660559;-76
2024/02/21 01:43:49;;;;;;;36.83;14.77;;;3.70;99.90;;;;;;4421023;28;660310;-76
2024/02/21 01:46:37;;;;;;;37.43;15.67;;;3.60;84.20;;;;;;4417476;28;659482;-75
2024/02/21 01:49:24;;;;;;;45.77;16.90;;;3.60;92.70;;;;;;4410346;28;659969;-77
2024/02/21 01:52:11;;;;;;;43.33;17.33;;;3.60;93.50;;;;;;4430271;28;659924;-77
2024/02/21 01:54:58;;;;;;;41.33;16.23;;;3.70;99.90;;;;;;4421324;28;659703;-76
2024/02/21 01:57:47;;;;;;;40.47;16.37;;;3.60;99.90;;;;;;4425147;28;660807;-76
2024/02/21 02:00:34;;;;;;;38.77;15.73;;;3.60;99.90;;;;;;4405757;28;660503;-76
2024/02/21 02:03:22;;;;;;;42.07;15.53;;;3.60;99.90;;;;;;4420980;28;659317;-76
2024/02/21 02:06:09;;;;;;;38.57;15.63;;;3.70;99.90;;;;;;4408055;28;659893;-76
2024/02/21 02:08:56;;;;;;;40.63;16.03;;;3.70;99.90;;;;;;4438402;28;659643;-77
2024/02/21 02:11:43;;;;;;;45.67;17.30;;;3.60;99.90;;;;;;4410446;28;659469;-76
2024/02/21 02:14:32;;;;;;;47.67;17.23;;;3.70;99.90;;;;;;4412846;28;660406;-76
2024/02/21 02:17:19;;;;;;;45.67;19.63;;;3.70;99.90;;;;;;4404023;28;660379;-77
2024/02/21 02:20:08;;;;;;;55.33;20.60;;;3.70;94.80;;;;;;4434096;28;659487;-76
2024/02/21 02:22:55;;;;;;;53.93;20.87;;;3.80;74.10;;;;;;4414083;28;659718;-76
2024/02/21 02:25:44;;;;;;;41.28;15.25;;;3.80;68.00;;;;;;4414465;28;659947;-75
2024/02/21 02:28:31;;;;;;;48.13;20.93;;;3.80;76.00;;;;;;4435304;28;659955;-77
2024/02/21 02:31:18;;;;;;;54.00;21.23;;;3.80;39.30;;;;;;4410250;28;659535;-76
2024/02/21 02:34:06;;;;;;;55.15;20.98;;;3.80;50.50;;;;;;4443433;28;660449;-76
2024/02/21 02:36:54;;;;;;;50.43;21.00;;;3.70;46.20;;;;;;4417550;28;659867;-75
2024/02/21 02:39:41;;;;;;;58.90;22.73;;;3.70;63.00;;;;;;4423708;28;659359;-77
2024/02/21 02:42:30;;;;;;;63.95;24.45;;;3.70;58.00;;;;;;4410847;28;660533;-76
2024/02/21 02:45:17;;;;;;;52.03;23.30;;;3.70;74.70;;;;;;4416304;28;660129;-75
2024/02/21 02:48:05;;;;;;;62.37;25.00;;;3.70;89.20;;;;;;4426862;28;660427;-76
2024/02/21 02:50:52;;;;;;;54.87;20.13;;;3.60;88.90;;;;;;4410507;28;660041;-74
2024/02/21 02:53:40;;;;;;;64.90;24.70;;;3.70;99.90;;;;;;4433779;28;660019;-77
2024/02/21 02:56:27;;;;;;;63.20;24.70;;;3.70;80.10;;;;;;4423282;28;659863;-76
2024/02/21 02:59:16;;;;;;;61.63;24.33;;;3.70;92.20;;;;;;4417143;28;660087;-76
2024/02/21 03:02:03;;;;;;;65.40;27.43;;;3.70;81.70;;;;;;4397462;28;659806;-76
2024/02/21 03:04:50;;;;;;;64.60;25.67;;;3.70;96.70;;;;;;4428985;28;659361;-77
2024/02/21 03:07:38;;;;;;;60.40;23.80;;;3.80;99.50;;;;;;4406576;28;659713;-75
2024/02/21 03:10:25;;;;;;;60.83;24.40;;;3.80;66.20;;;;;;4429982;28;660671;-76
2024/02/21 03:13:12;;;;;;;60.67;23.30;;;3.70;75.40;;;;;;4407579;28;659593;-75
2024/02/21 03:16:01;;;;;;;48.60;17.73;;;3.80;87.70;;;;;;4427101;28;660419;-77
2024/02/21 03:18:48;;;;;;;41.03;17.80;;;3.80;35.80;;;;;;4389505;28;659911;-76
2024/02/21 03:21:36;;;;;;;24.98;10.38;;;3.80;8.80;;;;;;4428331;28;660203;-76
2024/02/21 03:24:23;;;;;;;66.03;26.07;;;3.70;1.00;;;;;;4406177;28;658603;-75
2024/02/21 03:27:10;;;;;;;62.23;24.47;;;3.70;1.00;;;;;;4422938;28;659623;-76
2024/02/21 03:29:57;;;;;;;80.07;33.57;;;3.70;1.00;;;;;;4427989;28;658842;-75
2024/02/21 03:32:46;;;;;;;70.40;28.20;;;3.70;1.00;;;;;;4428217;28;659137;-76
2024/02/21 03:35:33;;;;;;;70.23;29.60;;;3.60;8.60;;;;;;4403697;28;658547;-75
2024/02/21 03:38:20;;;;;;;61.63;24.00;;;3.60;4.90;;;;;;4415879;28;659242;-76
2024/02/21 03:41:08;;;;;;;66.43;26.07;;;3.70;4.30;;;;;;4405303;28;658600;-75
2024/02/21 03:43:55;;;;;;;59.83;24.00;;;3.60;1.00;;;;;;4425390;28;659657;-76
2024/02/21 03:46:42;;;;;;;61.97;24.63;;;3.60;4.30;;;;;;4415716;28;659209;-76
2024/02/21 03:49:31;;;;;;;67.30;25.07;;;3.60;4.20;;;;;;4430156;28;659164;-77
2024/02/21 03:52:18;;;;;;;56.13;21.57;;;3.60;21.80;;;;;;4405417;28;658985;-75
2024/02/21 03:55:07;;;;;;;55.20;23.80;;;3.70;8.80;;;;;;4430414;28;660545;-76
2024/02/21 03:57:54;;;;;;;49.43;18.77;;;3.70;1.00;;;;;;4404795;28;659898;-76
2024/02/21 04:00:42;;;;;;;53.87;23.23;;;3.70;9.00;;;;;;4430798;28;658900;-78
2024/02/21 04:03:29;;;;;;;52.40;21.20;;;3.60;1.00;;;;;;4402002;28;658811;-77
2024/02/21 04:06:18;;;;;;;59.40;25.87;;;3.70;1.00;;;;;;4434152;28;658027;-76
2024/02/21 04:09:06;;;;;;;61.15;22.48;;;3.70;1.00;;;;;;4406771;28;658905;-77
2024/02/21 04:11:53;;;;;;;53.10;21.60;;;3.70;1.00;;;;;;4415234;28;659010;-76
2024/02/21 04:14:40;;;;;;;14.40;5.27;;;3.70;1.00;;;;;;4424343;28;659110;-77
2024/02/21 04:17:27;;;;;;;28.30;10.30;;;3.70;1.00;;;;;;4410027;28;657894;-76
2024/02/21 04:20:15;;;;;;;60.67;23.67;;;3.70;1.00;;;;;;4434869;28;658883;-76
2024/02/21 04:23:04;;;;;;;63.33;21.13;;;3.60;1.00;;;;;;4418230;28;658485;-75
2024/02/21 04:25:52;;;;;;;60.37;23.80;;;3.70;33.80;;;;;;4440163;28;658744;-77
2024/02/21 04:28:39;;;;;;;53.67;21.63;;;3.70;24.40;;;;;;4410555;28;660241;-77
2024/02/21 04:31:26;;;;;;;58.60;21.90;;;3.60;16.50;;;;;;4434147;28;659808;-76
2024/02/21 04:34:13;;;;;;;49.47;19.97;;;3.60;15.20;;;;;;4407319;28;660444;-77
2024/02/21 04:37:01;;;;;;;57.87;20.20;;;3.60;22.40;;;;;;4422421;28;660280;-77
2024/02/21 04:39:49;;;;;;;43.53;19.60;;;3.60;1.00;;;;;;4404811;28;659902;-76
2024/02/21 04:42:36;;;;;;;51.53;21.13;;;3.60;1.00;;;;;;4428004;28;658633;-76
2024/02/21 04:45:24;;;;;;;54.07;22.43;;;3.60;1.00;;;;;;4408980;28;659113;-75
2024/02/21 04:48:11;;;;;;;54.90;20.50;;;3.60;1.00;;;;;;4427721;28;658651;-74
2024/02/21 04:50:58;;;;;;;51.37;19.43;;;3.60;1.00;;;;;;4415298;28;658432;-74
2024/02/21 04:53:45;;;;;;;42.07;18.50;;;3.60;1.00;;;;;;4443982;28;658917;-75
2024/02/21 04:56:34;;;;;;;51.60;18.53;;;3.60;1.00;;;;;;4410767;28;658924;-74
2024/02/21 04:59:21;;;;;;;43.60;17.93;;;3.50;1.00;;;;;;4435414;28;658263;-75
2024/02/21 05:02:09;;;;;;;38.97;16.23;;;3.60;21.40;;;;;;4394479;28;658757;-75
2024/02/21 05:04:56;;;;;;;41.70;18.47;;;3.60;17.20;;;;;;4418764;28;659943;-74
2024/02/21 05:07:43;;;;;;;37.97;13.50;;;3.60;40.10;;;;;;4395871;28;659943;-74
2024/02/21 05:10:30;;;;;;;37.47;15.23;;;3.60;19.40;;;;;;4411980;28;659820;-75
2024/02/21 05:13:19;;;;;;;40.08;16.20;;;3.60;8.00;;;;;;4392709;28;659562;-74
2024/02/21 05:16:07;;;;;;;32.70;14.03;;;3.50;1.00;;;;;;4428892;28;658449;-74
2024/02/21 05:18:54;;;;;;;31.13;13.33;;;3.60;8.20;;;;;;4399829;28;658687;-74
2024/02/21 05:21:41;;;;;;;31.10;12.53;;;3.60;1.00;;;;;;4428166;28;658733;-74
2024/02/21 05:24:29;;;;;;;22.20;7.67;;;3.60;1.00;;;;;;4411873;28;658480;-74
2024/02/21 05:27:16;;;;;;;30.60;10.57;;;3.60;1.00;;;;;;4448640;28;657497;-74
2024/02/21 05:30:07;;;;;;;29.73;10.37;;;3.50;1.00;;;;;;4408416;28;658789;-74
2024/02/21 05:32:54;;;;;;;22.80;10.60;;;3.60;1.00;;;;;;4412263;28;658947;-74
2024/02/21 05:35:41;;;;;;;30.03;11.10;;;3.60;1.00;;;;;;4431602;28;658773;-75
2024/02/21 05:38:29;;;;;;;28.50;11.63;;;3.50;1.00;;;;;;4404837;28;658363;-75
2024/02/21 05:41:16;;;;;;;41.17;10.67;;;3.50;1.00;;;;;;4426851;28;658678;-75
2024/02/21 05:44:03;;;;;;;36.17;12.93;;;3.60;1.00;;;;;;4396039;28;658949;-75
2024/02/21 05:46:52;;;;;;;39.87;14.73;;;3.60;1.00;;;;;;4430439;28;658921;-75
2024/02/21 05:49:40;;;;;;;41.93;15.43;;;3.60;1.00;;;;;;4392344;28;658859;-75
2024/02/21 05:52:27;;;;;;;31.63;14.13;;;3.60;1.00;;;;;;4409380;28;658709;-75
2024/02/21 05:55:15;;;;;;;31.13;14.50;;;3.40;1.00;;;;;;4432161;28;659065;-75
2024/02/21 05:58:03;;;;;;;39.60;15.10;;;3.40;1.00;;;;;;4411416;28;658750;-75
2024/02/21 06:00:50;;;;;;;38.23;16.83;;;3.30;1.00;;;;;;4433732;28;658782;-76
2024/02/21 06:03:39;;;;;;;32.33;10.37;;;3.40;1.00;;;;;;4417383;28;659139;-75
2024/02/21 06:06:26;;;;;;;45.00;18.97;;;3.50;1.00;;;;;;4436196;28;658451;-76
2024/02/21 06:09:13;;;;;;;44.83;16.37;;;3.50;1.00;;;;;;4390644;28;659449;-75
2024/02/21 06:12:01;;;;;;;46.45;19.80;;;3.60;1.00;;;;;;4419217;28;658976;-76
2024/02/21 06:14:48;;;;;;;46.37;18.23;;;3.50;1.00;;;;;;4404483;28;658828;-75
2024/02/21 06:17:35;;;;;;;38.40;17.07;;;3.60;1.00;;;;;;4421876;28;659309;-75
2024/02/21 06:20:24;;;;;;;44.83;18.23;;;3.70;1.00;;;;;;4416757;28;658634;-75
2024/02/21 06:23:12;;;;;;;40.33;16.10;;;3.70;1.00;;;;;;4413193;28;658313;-76
2024/02/21 06:26:00;;;;;;;27.77;9.25;;;3.70;1.00;;;;;;4404663;28;658507;-75
2024/02/21 06:28:47;;;;;;;39.13;16.87;;;3.80;1.00;;;;;;4430883;28;657735;-75
2024/02/21 06:31:34;;;;;;;37.07;16.67;;;3.80;1.00;;;;;;4412155;28;659023;-75
2024/02/21 06:34:21;;;;;;;48.37;16.47;;;3.80;1.00;;;;;;4428073;28;659250;-75
2024/02/21 06:37:10;;;;;;;39.20;17.43;;;3.90;1.00;;;;;;4405439;28;659034;-75
2024/02/21 06:39:58;;;;;;;48.22;18.05;;;3.80;1.00;;;;;;4413719;28;658933;-76
2024/02/21 06:42:45;;;;;;;38.10;15.50;;;3.90;1.00;;;;;;4438866;28;659710;-75
2024/02/21 06:45:32;;;;;;;32.63;11.70;;;4.00;1.00;;;;;;4437586;28;658606;-74
2024/02/21 06:48:20;;;;;;;42.53;14.10;;;4.10;1.00;;;;;;4437123;28;658281;-74
2024/02/21 06:51:08;;;;;;;45.77;16.83;;;4.20;1.00;;;;;;4417383;28;658902;-75
2024/02/21 06:53:57;;;;;;;26.33;10.27;;;4.20;1.00;;;;;;4432119;28;658744;-75
2024/02/21 06:56:44;;;;;;;38.70;15.30;;;4.20;99.90;;;;;;4409157;28;658388;-75
2024/02/21 06:59:31;;;;;;;46.50;18.13;;;4.20;99.90;;;;;;4421227;28;659387;-75
2024/02/21 07:02:18;;;;;;;34.60;16.20;;;4.20;99.90;;;;;;4399713;28;659307;-75
2024/02/21 07:05:06;;;;;;;29.13;11.70;;;4.40;1.00;;;;;;4423128;28;660043;-74
2024/02/21 07:07:54;;;;;;;38.87;15.87;;;4.40;1.00;;;;;;4406081;28;658745;-74
2024/02/21 07:10:42;;;;;;;42.73;17.80;;;4.40;1.00;;;;;;4430756;28;658574;-75
2024/02/21 07:13:29;;;;;;;33.57;11.00;;;4.60;1.00;;;;;;4405489;28;659414;-75
2024/02/21 07:16:17;;;;;;;43.30;18.07;;;4.80;1.00;;;;;;4423823;28;659037;-75
2024/02/21 07:19:04;;;;;;;41.00;17.50;;;4.80;1.00;;;;;;4420423;28;658678;-75
2024/02/21 07:21:51;;;;;;;20.47;8.03;;;4.80;99.90;;;;;;4426781;28;659598;-75
2024/02/21 07:24:38;;;;;;;39.57;14.73;;;4.70;1.00;;;;;;4414524;28;658729;-75
2024/02/21 07:27:30;;;;;;;26.53;9.57;;;4.60;1.00;;;;;;4433364;28;658837;-75
2024/02/21 07:30:18;;;;;;;30.75;15.07;;;4.60;1.00;;;;;;4417070;28;657312;-75
2024/02/21 07:33:07;;;;;;;34.17;15.03;;;4.60;1.00;;;;;;4435102;28;659329;-77
2024/02/21 07:35:54;;;;;;;24.10;7.27;;;4.60;1.00;;;;;;4405814;28;658846;-75
2024/02/21 07:38:41;;;;;;;38.87;16.60;;;4.60;1.00;;;;;;4431856;28;657264;-75
2024/02/21 07:41:30;;;;;;;35.30;13.30;;;4.60;99.90;;;;;;4390055;28;658268;-75
2024/02/21 07:44:19;;;;;;;39.73;16.00;;;4.70;1.00;;;;;;4419547;28;659621;-75
2024/02/21 07:47:07;;;;;;;21.20;9.77;;;4.70;1.00;;;;;;4436637;28;658275;-76
2024/02/21 07:49:54;;;;;;;40.93;15.33;;;4.70;1.00;;;;;;4402690;28;658027;-75
2024/02/21 07:52:42;;;;;;;13.77;5.50;;;4.80;1.00;;;;;;4425416;28;658399;-75
2024/02/21 07:55:29;;;;;;;39.00;16.03;;;4.80;1.00;;;;;;4423002;28;657770;-76
2024/02/21 07:58:16;;;;;;;35.20;14.13;;;4.80;1.00;;;;;;4438470;28;658661;-75
2024/02/21 08:01:05;;;;;;;37.43;14.53;;;4.90;1.00;;;;;;4410001;28;659170;-75
2024/02/21 08:03:52;;;;;;;16.30;5.87;;;5.00;1.00;;;;;;4407960;28;658702;-75
2024/02/21 08:06:40;;;;;;;32.63;12.73;;;5.00;67.50;;;;;;4433399;28;657963;-75
2024/02/21 08:09:27;;;;;;;13.97;5.43;;;4.90;99.90;;;;;;4429986;28;659998;-74
2024/02/21 08:12:14;;;;;;;25.10;10.43;;;4.90;1.00;;;;;;4413940;28;658654;-74
2024/02/21 08:15:02;;;;;;;27.13;11.27;;;4.90;99.90;;;;;;4439897;28;658574;-76
2024/02/21 08:17:51;;;;;;;20.07;6.47;;;4.90;28.90;;;;;;4400328;28;660273;-75
2024/02/21 08:20:38;;;;;;;14.33;3.87;;;4.90;17.20;;;;;;4405877;28;658597;-74
2024/02/21 08:23:26;;;;;;;9.07;3.57;;;4.90;1.00;;;;;;4437117;28;658230;-75
2024/02/21 08:26:13;;;;;;;17.87;7.03;;;5.00;10.60;;;;;;4417551;28;656200;-75
2024/02/21 08:29:00;;;;;;;9.93;3.43;;;4.90;1.00;;;;;;4444061;28;658800;-75
2024/02/21 08:31:47;;;;;;;28.67;9.23;;;5.00;1.00;;;;;;4408138;28;656346;-74
2024/02/21 08:34:36;;;;;;;25.80;7.87;;;5.10;1.00;;;;;;4430197;28;658636;-75
2024/02/21 08:37:23;;;;;;;32.53;10.80;;;5.10;1.00;;;;;;4391471;28;657370;-75
2024/02/21 08:40:11;;;;;;;9.10;4.07;;;5.30;99.90;;;;;;4433926;28;658611;-75
2024/02/21 08:42:59;;;;;;;24.73;8.73;;;5.40;1.00;;;;;;4418798;28;657776;-76
2024/02/21 08:45:46;;;;;;;24.40;8.23;;;5.50;1.00;;;;;;4426363;28;657894;-75
2024/02/21 08:48:33;;;;;;;21.23;8.13;;;5.60;16.70;;;;;;4401886;28;657356;-76
2024/02/21 08:51:22;;;;;;;20.97;7.17;;;5.70;1.00;;;;;;4432779;28;659744;-75
2024/02/21 08:54:09;;;;;;;14.90;5.57;;;5.90;1.00;;;;;;4410773;28;658196;-75
2024/02/21 08:56:56;;;;;;;15.23;4.80;;;5.90;1.00;;;;;;4430722;28;657257;-76
2024/02/21 08:59:43;;;;;;;9.43;3.27;;;6.00;99.90;;;;;;4407661;28;658101;-75
2024/02/21 09:02:31;;;;;;;6.38;2.70;;;6.00;1.00;;;;;;4429934;28;657465;-75
2024/02/21 09:05:18;;;;;;;16.93;4.23;;;6.20;1.00;;;;;;4398396;28;656700;-75
2024/02/21 09:08:07;;;;;;;11.33;4.20;;;6.30;99.90;;;;;;4431664;28;657840;-76
2024/02/21 09:10:54;;;;;;;19.10;5.87;;;6.40;99.90;;;;;;4413599;28;659408;-76
2024/02/21 09:13:41;;;;;;;15.30;6.00;;;6.40;1.00;;;;;;4414778;28;659153;-76
2024/02/21 09:16:29;;;;;;;16.37;4.50;;;6.50;1.00;;;;;;4414595;28;657912;-76
2024/02/21 09:19:17;;;;;;;14.37;4.07;;;6.80;1.00;;;;;;4422154;28;657727;-75
2024/02/21 09:22:05;;;;;;;13.47;5.87;;;6.50;1.00;;;;;;4396955;28;658269;-76
2024/02/21 09:24:54;;;;;;;11.50;4.63;;;6.40;99.90;;;;;;4419386;28;657875;-75
2024/02/21 09:27:41;;;;;;;12.20;5.70;;;6.50;99.90;;;;;;4429396;28;659267;-76
2024/02/21 09:30:28;;;;;;;10.65;3.22;;;6.30;1.00;;;;;;4389632;28;658800;-75
2024/02/21 09:33:16;;;;;;;12.33;4.13;;;6.50;1.00;;;;;;4429578;28;657581;-74
2024/02/21 09:36:05;;;;;;;15.03;6.07;;;6.60;1.00;;;;;;4392479;28;657814;-75
2024/02/21 09:38:54;;;;;;;18.07;5.83;;;6.60;2.00;;;;;;4406425;28;657619;-75
2024/02/21 09:41:45;;;;;;;8.37;2.77;;;6.60;99.90;;;;;;4437588;28;657209;-74
2024/02/21 09:44:37;;;;;;;15.83;4.30;;;6.60;1.00;;;;;;4403584;28;657922;-74
2024/02/21 09:47:25;;;;;;;15.20;5.60;;;6.70;94.60;;;;;;4409026;28;658240;-75
2024/02/21 09:50:12;;;;;;;11.60;4.77;;;6.70;51.80;;;;;;4420652;28;658459;-74
2024/02/21 09:53:01;;;;;;;12.07;2.53;;;6.90;1.00;;;;;;4440925;28;658443;-75
2024/02/21 09:55:49;;;;;;;5.18;1.65;;;6.80;1.00;;;;;;4417716;28;658076;-75
2024/02/21 09:58:37;;;;;;;18.53;4.77;;;6.90;99.90;;;;;;4433360;28;656526;-76
2024/02/21 10:01:25;;;;;;;12.10;4.53;;;7.10;1.00;;;;;;4405137;28;659272;-76
2024/02/21 10:04:12;;;;;;;5.47;2.47;;;7.10;99.90;;;;;;4432021;28;656988;-76
2024/02/21 10:06:59;;;;;;;14.57;4.07;;;7.30;99.90;;;;;;4413834;28;657907;-76
2024/02/21 10:09:48;;;;;;;18.03;5.10;;;7.10;1.00;;;;;;4439818;28;658669;-76
2024/02/21 10:12:35;;;;;;;15.87;4.70;;;6.90;99.90;;;;;;4392797;28;657737;-76
2024/02/21 10:15:24;;;;;;;12.03;4.80;;;6.90;1.00;;;;;;4425573;28;658900;-75
2024/02/21 10:18:11;;;;;;;8.98;2.63;;;7.10;1.00;;;;;;4428510;28;657665;-76
2024/02/21 10:21:03;;;;;;;12.03;4.87;;;7.10;1.00;;;;;;4406993;28;656529;-76
2024/02/21 10:23:51;;;;;;;13.47;4.90;;;7.00;99.90;;;;;;4420999;28;658019;-76
2024/02/21 10:26:38;;;;;;;14.67;4.37;;;7.10;99.90;;;;;;4406768;28;658669;-75
2024/02/21 10:29:25;;;;;;;11.53;4.20;;;7.20;1.00;;;;;;4442805;28;659636;-76
2024/02/21 10:32:15;;;;;;;12.30;3.73;;;7.20;1.00;;;;;;4402900;28;657523;-75
2024/02/21 10:35:04;;;;;;;17.30;5.60;;;7.10;99.90;;;;;;4401823;28;658070;-75
2024/02/21 10:37:55;;;;;;;16.30;4.63;;;7.10;1.00;;;;;;4436239;28;658128;-76
2024/02/21 10:40:43;;;;;;;21.10;5.90;;;7.20;1.00;;;;;;4393962;28;657735;-75
2024/02/21 10:43:30;;;;;;;20.50;5.63;;;7.10;99.90;;;;;;4411362;28;658056;-76
2024/02/21 10:46:19;;;;;;;9.53;3.43;;;7.20;99.90;;;;;;4436079;28;659434;-75
2024/02/21 10:49:11;;;;;;;15.07;5.30;;;7.30;1.00;;;;;;4433226;28;657768;-76
2024/02/21 10:52:03;;;;;;;9.93;4.10;;;7.20;99.90;;;;;;4383450;28;658276;-76
2024/02/21 10:54:56;;;;;;;15.80;5.90;;;7.20;49.60;;;;;;4417312;28;658556;-76
2024/02/21 10:57:43;;;;;;;8.70;3.67;;;7.00;99.90;;;;;;4371378;28;658721;-75
2024/02/21 11:00:30;;;;;;;9.73;3.23;;;6.90;99.90;;;;;;4421996;28;657965;-76
2024/02/21 11:03:18;;;;;;;9.00;2.70;;;7.00;97.50;;;;;;4397516;28;657519;-75
2024/02/21 11:06:08;;;;;;;14.87;2.20;;;7.00;1.00;;;;;;4442802;28;658185;-76
2024/02/21 11:09:03;;;;;;;4.73;2.37;;;7.00;1.00;;;;;;4395913;28;658025;-76
2024/02/21 11:11:51;;;;;;;9.93;3.08;;;7.10;1.00;;;;;;4416004;28;656867;-76
2024/02/21 11:14:41;;;;;;;9.67;2.63;;;7.10;1.00;;;;;;4401631;28;656752;-76
2024/02/21 11:17:29;;;;;;;11.07;3.85;;;7.20;1.00;;;;;;4410454;28;656461;-76
2024/02/21 11:20:16;;;;;;;13.17;4.10;;;7.20;1.00;;;;;;4440977;28;658296;-76
2024/02/21 11:23:05;;;;;;;17.50;4.37;;;7.20;1.00;;;;;;4416466;28;657963;-76
2024/02/21 11:25:52;;;;;;;13.13;4.70;;;7.40;1.00;;;;;;4433051;28;657622;-77
2024/02/21 11:28:39;;;;;;;11.10;4.27;;;7.50;99.90;;;;;;4414285;28;658866;-76
2024/02/21 11:31:28;;;;;;;10.90;2.97;;;7.80;99.90;;;;;;4434908;28;658356;-76
2024/02/21 11:34:18;;;;;;;13.10;3.63;;;7.80;99.90;;;;;;4417158;28;659248;-76
2024/02/21 11:37:05;;;;;;;19.87;4.77;;;8.00;1.00;;;;;;4396823;28;659043;-76
2024/02/21 11:39:54;;;;;;;7.70;3.20;;;8.40;1.00;;;;;;4431257;28;657994;-75
2024/02/21 11:42:41;;;;;;;12.47;4.10;;;8.30;1.00;;;;;;4430723;28;656520;-76
2024/02/21 11:45:28;;;;;;;14.67;4.73;;;8.10;99.90;;;;;;4409313;28;657806;-75
2024/02/21 11:48:16;;;;;;;11.17;4.13;;;8.00;99.90;;;;;;4424135;28;659131;-76
2024/02/21 11:51:05;;;;;;;12.90;3.17;;;7.90;1.00;;;;;;4405248;28;659770;-75
2024/02/21 11:53:53;;;;;;;11.00;3.27;;;7.70;1.00;;;;;;4406971;28;657702;-75
2024/02/21 11:56:42;;;;;;;9.70;3.17;;;7.60;1.00;;;;;;4430188;28;657583;-76
2024/02/21 11:59:31;;;;;;;11.70;3.60;;;7.70;1.00;;;;;;4412535;28;656238;-75
2024/02/21 12:02:18;;;;;;;11.67;4.17;;;7.70;56.70;;;;;;4428445;28;658063;-76
2024/02/21 12:05:06;;;;;;;9.07;3.50;;;7.70;1.00;;;;;;4435525;28;659413;-75
2024/02/21 12:07:53;;;;;;;12.03;3.63;;;7.60;1.00;;;;;;4413843;28;656874;-75
2024/02/21 12:10:44;;;;;;;17.00;4.20;;;7.70;1.00;;;;;;4436133;28;657784;-77
2024/02/21 12:13:32;;;;;;;5.27;0.97;;;7.60;4.80;;;;;;4416369;28;657890;-76
2024/02/21 12:16:20;;;;;;;11.60;3.67;;;7.60;1.00;;;;;;4418648;28;657280;-76
2024/02/21 12:19:08;;;;;;;13.45;3.63;;;7.60;1.00;;;;;;4418923;28;657680;-75
2024/02/21 12:21:57;;;;;;;6.77;2.53;;;7.60;1.00;;;;;;4420880;28;657657;-76
2024/02/21 12:24:47;;;;;;;6.27;2.37;;;7.70;99.90;;;;;;4404204;28;657340;-76
2024/02/21 12:27:34;;;;;;;9.70;1.60;;;7.60;99.90;;;;;;4412171;28;658290;-76
2024/02/21 12:30:23;;;;;;;6.83;2.63;;;7.60;99.90;;;;;;4435751;28;657118;-77
2024/02/21 12:33:10;;;;;;;4.80;1.70;;;7.60;99.90;;;;;;4416480;28;657640;-76
2024/02/21 12:35:58;;;;;;;13.05;3.80;;;7.60;1.00;;;;;;4416915;28;657445;-75
2024/02/21 12:38:46;;;;;;;17.40;3.87;;;7.50;99.90;;;;;;4432562;28;658471;-76
2024/02/21 12:41:35;;;;;;;6.43;2.27;;;7.50;1.00;;;;;;4414345;28;658632;-76
2024/02/21 12:44:23;;;;;;;12.20;3.90;;;7.40;1.00;;;;;;4418820;28;656777;-75
2024/02/21 12:47:12;;;;;;;16.03;4.50;;;7.30;1.00;;;;;;4434547;28;658452;-76
2024/02/21 12:50:00;;;;;;;10.07;2.47;;;7.30;1.00;;;;;;4400589;28;657862;-76
2024/02/21 12:52:47;;;;;;;11.47;3.63;;;7.30;99.90;;;;;;4439243;28;657406;-76
2024/02/21 12:55:34;;;;;;;8.83;2.50;;;7.20;99.90;;;;;;4406375;28;659387;-74
2024/02/21 12:58:22;;;;;;;5.10;2.17;;;7.30;1.00;;;;;;4418069;28;657498;-74
2024/02/21 13:01:09;;;;;;;17.17;4.93;;;7.20;23.90;;;;;;4397104;28;657306;-74
2024/02/21 13:04:00;;;;;;;14.80;4.17;;;7.30;1.00;;;;;;4427547;28;658711;-74
2024/02/21 13:06:48;;;;;;;17.53;3.87;;;7.30;99.90;;;;;;4396075;28;657985;-74
2024/02/21 13:09:35;;;;;;;9.60;2.47;;;7.30;1.00;;;;;;4426981;28;659596;-74
2024/02/21 13:12:22;;;;;;;5.93;2.63;;;7.30;99.90;;;;;;4411828;28;656722;-73
2024/02/21 13:15:12;;;;;;;9.23;3.33;;;7.10;99.90;;;;;;4434712;28;659274;-74
2024/02/21 13:17:59;;;;;;;10.80;4.17;;;7.10;1.00;;;;;;4421550;28;657601;-73
2024/02/21 13:20:48;;;;;;;9.37;2.30;;;6.90;1.00;;;;;;4439051;28;657425;-72
2024/02/21 13:23:36;;;;;;;13.20;3.40;;;6.80;1.00;;;;;;4419702;28;657070;-72
2024/02/21 13:26:23;;;;;;;14.60;5.50;;;6.70;99.90;;;;;;4419068;28;658078;-73
2024/02/21 13:29:10;;;;;;;13.97;4.40;;;6.70;99.90;;;;;;4440245;28;660111;-71
2024/02/21 13:31:57;;;;;;;18.58;6.45;;;6.70;99.90;;;;;;4419265;28;659167;-72
2024/02/21 13:34:45;;;;;;;18.77;5.67;;;6.70;1.00;;;;;;4439581;28;658629;-72
2024/02/21 13:37:34;;;;;;;18.93;5.47;;;6.60;1.00;;;;;;4419833;28;657228;-73
2024/02/21 13:40:21;;;;;;;11.83;3.23;;;6.70;99.90;;;;;;4437643;28;657669;-73
2024/02/21 13:43:09;;;;;;;18.27;4.53;;;6.50;92.40;;;;;;4409856;28;658951;-73
2024/02/21 13:45:57;;;;;;;11.97;3.90;;;6.50;99.90;;;;;;4434347;28;658929;-73
2024/02/21 13:48:44;;;;;;;12.43;4.40;;;6.40;65.60;;;;;;4407746;28;659075;-73
2024/02/21 13:51:32;;;;;;;13.37;4.27;;;6.20;99.90;;;;;;4426654;28;659404;-73
2024/02/21 13:54:21;;;;;;;15.20;4.53;;;6.10;99.90;;;;;;4421106;28;658355;-73
2024/02/21 13:57:08;;;;;;;18.30;5.37;;;6.10;99.90;;;;;;4421472;28;658848;-73
2024/02/21 13:59:56;;;;;;;12.00;4.37;;;6.10;99.90;;;;;;4444606;28;658734;-73
2024/02/21 14:02:43;;;;;;;21.57;5.60;;;6.10;1.00;;;;;;4416595;28;659247;-73
2024/02/21 14:05:30;;;;;;;4.37;1.67;;;6.10;1.00;;;;;;4438073;28;658631;-73
2024/02/21 14:08:17;;;;;;;13.63;3.90;;;6.10;1.00;;;;;;4412649;28;656825;-73
2024/02/21 14:11:06;;;;;;;19.43;7.80;;;6.10;1.00;;;;;;4412705;28;658525;-73
2024/02/21 14:13:57;;;;;;;16.60;7.93;;;6.10;1.00;;;;;;4415628;28;657847;-73
2024/02/21 14:16:44;;;;;;;13.40;6.17;;;6.10;1.00;;;;;;4418704;28;658845;-73
2024/02/21 14:19:31;;;;;;;16.30;6.03;;;6.10;99.90;;;;;;4440459;28;657234;-73
2024/02/21 14:22:19;;;;;;;16.63;6.97;;;6.10;99.90;;;;;;4410197;28;658869;-73